createdAt,value
2023-11-25T00:01:41.697Z,14.75
2023-11-25T00:06:45.850Z,15.77
2023-11-25T00:11:49.644Z,15.98
2023-11-25T00:16:57.234Z,17.85
2023-11-25T00:22:00.872Z,16.35
2023-11-25T00:27:04.960Z,16.93
2023-11-25T00:32:10.296Z,17.38
2023-11-25T00:37:13.794Z,18.17
2023-11-25T00:42:17.525Z,16.92
2023-11-25T00:47:23.678Z,16.57
2023-11-25T00:52:27.223Z,16.60
2023-11-25T00:57:30.931Z,14.07
2023-11-25T01:02:36.786Z,13.98
2023-11-25T01:07:40.371Z,11.45
2023-11-25T01:12:43.967Z,12.20
2023-11-25T01:17:49.005Z,11.57
2023-11-25T01:22:52.707Z,10.43
2023-11-25T01:27:56.522Z,12.10
2023-11-25T01:33:03.436Z,11.32
2023-11-25T01:38:07.173Z,12.10
2023-11-25T01:43:12.883Z,11.43
2023-11-25T01:48:18.073Z,12.13
2023-11-25T01:53:22.451Z,12.10
2023-11-25T01:58:26.909Z,11.90
2023-11-25T02:03:32.894Z,12.48
2023-11-25T02:08:36.538Z,11.47
2023-11-25T02:13:40.337Z,11.00
2023-11-25T02:18:45.903Z,10.27
2023-11-25T02:23:50.729Z,11.03
2023-11-25T02:28:54.243Z,10.50
2023-11-25T02:33:57.879Z,11.33
2023-11-25T02:39:03.231Z,10.30
2023-11-25T02:44:08.660Z,10.57
2023-11-25T02:49:12.383Z,10.67
2023-11-25T02:54:17.499Z,10.27
2023-11-25T02:59:20.985Z,10.35
2023-11-25T03:04:28.348Z,10.30
2023-11-25T03:09:35.062Z,10.57
2023-11-25T03:14:38.538Z,10.37
2023-11-25T03:19:42.033Z,9.93
2023-11-25T03:24:47.195Z,10.10
2023-11-25T03:29:50.869Z,10.15
2023-11-25T03:34:54.419Z,9.60
2023-11-25T03:39:59.441Z,10.67
2023-11-25T03:45:02.933Z,10.60
2023-11-25T03:50:09.903Z,9.40
2023-11-25T03:55:15.245Z,9.77
2023-11-25T04:00:20.283Z,10.70
2023-11-25T04:05:25.195Z,9.97
2023-11-25T04:10:30.239Z,10.48
2023-11-25T04:15:34.129Z,10.30
2023-11-25T04:20:37.989Z,9.77
2023-11-25T04:25:44.954Z,9.55
2023-11-25T04:30:48.714Z,10.73
2023-11-25T04:35:52.758Z,9.93
2023-11-25T04:40:58.302Z,9.05
2023-11-25T04:46:05.974Z,10.53
2023-11-25T04:51:10.588Z,10.03
2023-11-25T04:56:17.241Z,10.20
2023-11-25T05:01:21.148Z,9.53
2023-11-25T05:06:24.872Z,9.70
2023-11-25T05:11:30.034Z,9.50
2023-11-25T05:16:33.585Z,10.60
2023-11-25T05:21:37.170Z,9.38
2023-11-25T05:26:42.082Z,9.48
2023-11-25T05:31:45.639Z,9.50
2023-11-25T05:36:49.666Z,10.35
2023-11-25T05:41:54.825Z,9.90
2023-11-25T05:46:58.615Z,11.00
2023-11-25T05:52:02.288Z,9.52
2023-11-25T05:57:07.589Z,9.23
2023-11-25T06:02:11.112Z,9.70
2023-11-25T06:07:28.571Z,10.20
2023-11-25T06:12:34.159Z,10.53
2023-11-25T06:17:38.359Z,11.27
2023-11-25T06:22:42.785Z,10.35
2023-11-25T06:27:48.570Z,10.32
2023-11-25T06:32:52.557Z,10.50
2023-11-25T06:37:56.367Z,9.93
2023-11-25T06:43:01.899Z,10.87
2023-11-25T06:48:05.870Z,10.13
2023-11-25T06:53:09.849Z,10.35
2023-11-25T06:58:15.085Z,10.60
2023-11-25T07:03:18.753Z,10.27
2023-11-25T07:08:22.250Z,10.40
2023-11-25T07:13:29.297Z,9.73
2023-11-25T07:18:34.419Z,9.85
2023-11-25T07:23:38.115Z,10.38
2023-11-25T07:28:44.818Z,10.63
2023-11-25T07:33:51.341Z,11.15
2023-11-25T07:38:55.031Z,11.13
2023-11-25T07:44:00.052Z,11.70
2023-11-25T07:49:03.834Z,10.90
2023-11-25T07:54:09.882Z,11.00
2023-11-25T07:59:14.981Z,11.13
2023-11-25T08:04:18.717Z,11.55
2023-11-25T08:09:22.654Z,10.83
2023-11-25T08:14:27.845Z,10.67
2023-11-25T08:19:31.627Z,10.25
2023-11-25T08:24:36.788Z,10.70
2023-11-25T08:29:46.182Z,10.65
2023-11-25T08:34:51.379Z,11.35
2023-11-25T08:39:55.024Z,13.25
2023-11-25T08:45:02.632Z,12.20
2023-11-25T08:50:11.669Z,12.18
2023-11-25T08:55:19.775Z,12.10
2023-11-25T09:00:25.664Z,12.32
2023-11-25T09:05:30.082Z,12.50
2023-11-25T09:10:35.592Z,11.27
2023-11-25T09:15:42.190Z,11.32
2023-11-25T09:20:46.481Z,11.05
2023-11-25T09:25:50.031Z,11.83
2023-11-25T09:30:55.159Z,11.93
2023-11-25T09:35:58.860Z,11.40
2023-11-25T09:41:02.538Z,12.40
2023-11-25T09:46:08.326Z,11.38
2023-11-25T09:51:15.580Z,11.52
2023-11-25T09:56:19.985Z,11.95
2023-11-25T10:01:25.552Z,11.95
2023-11-25T10:06:31.161Z,13.00
2023-11-25T10:11:35.829Z,12.90
2023-11-25T10:16:43.451Z,12.85
2023-11-25T10:21:48.200Z,13.00
2023-11-25T10:31:59.208Z,11.25
2023-11-25T10:37:03.197Z,12.63
2023-11-25T10:42:08.930Z,11.57
2023-11-25T10:47:31.490Z,11.57
2023-11-25T10:52:39.987Z,11.55
2023-11-25T10:57:43.998Z,12.82
2023-11-25T11:02:52.089Z,11.93
2023-11-25T11:08:03.300Z,13.35
2023-11-25T11:13:10.795Z,12.88
2023-11-25T11:18:21.614Z,12.90
2023-11-25T11:23:26.520Z,12.50
2023-11-25T11:28:42.940Z,12.75
2023-11-25T11:33:48.136Z,12.05
2023-11-25T11:38:54.171Z,11.43
2023-11-25T11:44:04.706Z,12.38
2023-11-25T11:49:10.691Z,11.38
2023-11-25T11:54:28.024Z,12.25
2023-11-25T12:00:13.384Z,12.00
2023-11-25T12:05:18.742Z,11.93
2023-11-25T12:10:22.577Z,13.32
2023-11-25T12:15:26.109Z,13.00
2023-11-25T12:20:32.577Z,12.90
2023-11-25T12:25:37.816Z,13.43
2023-11-25T12:30:42.585Z,13.13
2023-11-25T12:35:48.126Z,12.77
2023-11-25T12:40:51.643Z,13.88
2023-11-25T12:45:55.177Z,13.50
2023-11-25T12:51:06.441Z,13.00
2023-11-25T12:56:15.784Z,12.68
2023-11-25T13:01:26.582Z,13.00
2023-11-25T13:06:32.165Z,12.70
2023-11-25T13:11:36.658Z,13.93
2023-11-25T13:16:40.364Z,13.80
2023-11-25T13:21:45.518Z,14.90
2023-11-25T13:26:53.328Z,12.48
2023-11-25T13:31:57.833Z,14.07
2023-11-25T13:37:04.068Z,14.35
2023-11-25T13:42:09.059Z,12.40
2023-11-25T13:47:13.032Z,12.65
2023-11-25T13:52:17.954Z,12.97
2023-11-25T13:57:21.593Z,12.82
2023-11-25T14:02:28.992Z,13.17
2023-11-25T14:07:34.499Z,13.18
2023-11-25T14:12:38.919Z,13.30
2023-11-25T14:17:42.891Z,14.00
2023-11-25T14:22:49.227Z,14.02
2023-11-25T14:27:53.253Z,14.77
2023-11-25T14:32:56.969Z,14.88
2023-11-25T14:38:05.521Z,13.87
2023-11-25T14:43:10.997Z,14.00
2023-11-25T14:48:14.616Z,14.25
2023-11-25T14:53:19.685Z,13.50
2023-11-25T14:58:24.706Z,13.27
2023-11-25T15:03:29.340Z,14.30
2023-11-25T15:13:40.079Z,13.98
2023-11-25T15:18:43.832Z,14.37
2023-11-25T15:23:48.868Z,15.03
2023-11-25T15:28:55.743Z,14.18
2023-11-25T15:33:59.361Z,14.45
2023-11-25T15:39:06.047Z,15.48
2023-11-25T15:44:09.747Z,15.05
2023-11-25T15:49:13.732Z,14.47
2023-11-25T15:54:18.664Z,14.05
2023-11-25T15:59:25.477Z,16.50
2023-11-25T16:04:29.210Z,14.40
2023-11-25T16:09:36.897Z,15.33
2023-11-25T16:14:41.451Z,16.38
2023-11-25T16:19:45.280Z,15.98
2023-11-25T16:24:50.602Z,16.23
2023-11-25T16:29:56.233Z,14.97
2023-11-25T16:35:00.409Z,16.63
2023-11-25T16:40:06.999Z,16.93
2023-11-25T16:45:11.003Z,16.75
2023-11-25T16:50:15.335Z,15.50
2023-11-25T16:55:20.811Z,16.08
2023-11-25T17:00:24.536Z,16.95
2023-11-25T17:05:29.102Z,17.93
2023-11-25T17:10:34.213Z,17.48
2023-11-25T17:15:38.348Z,17.25
2023-11-25T17:20:42.037Z,17.85
2023-11-25T17:25:47.112Z,17.42
2023-11-25T17:30:50.810Z,17.05
2023-11-25T17:35:54.276Z,16.42
2023-11-25T17:40:59.342Z,15.52
2023-11-25T17:46:04.013Z,16.27
2023-11-25T17:56:13.583Z,16.27
2023-11-25T18:01:17.609Z,15.45
2023-11-25T18:06:21.285Z,16.60
2023-11-25T18:11:27.045Z,16.20
2023-11-25T18:16:30.792Z,16.50
2023-11-25T18:21:34.286Z,16.25
2023-11-25T18:26:39.219Z,15.98
2023-11-25T18:31:42.708Z,16.65
2023-11-25T18:36:46.162Z,16.65
2023-11-25T18:41:51.534Z,16.88
2023-11-25T18:46:55.470Z,17.83
2023-11-25T18:52:02.652Z,17.50
2023-11-25T18:57:08.627Z,17.23
2023-11-25T19:02:12.174Z,16.75
2023-11-25T19:07:16.238Z,16.67
2023-11-25T19:12:21.461Z,17.38
2023-11-25T19:17:25.282Z,16.60
2023-11-25T19:22:29.076Z,16.30
2023-11-25T19:27:34.225Z,16.92
2023-11-25T19:32:38.339Z,15.85
2023-11-25T19:37:42.215Z,15.80
2023-11-25T19:42:47.162Z,16.50
2023-11-25T19:47:50.899Z,16.80
2023-11-25T19:52:54.643Z,15.20
2023-11-25T19:57:59.942Z,16.83
2023-11-25T20:03:04.321Z,16.67
2023-11-25T20:08:09.819Z,16.73
2023-11-25T20:13:16.636Z,15.48
2023-11-25T20:18:20.453Z,16.80
2023-11-25T20:23:27.764Z,15.75
2023-11-25T20:28:32.724Z,15.50
2023-11-25T20:33:37.258Z,14.82
2023-11-25T20:38:42.741Z,16.98
2023-11-25T20:43:47.969Z,16.80
2023-11-25T20:48:51.883Z,17.75
2023-11-25T20:53:55.556Z,16.90
2023-11-25T20:59:02.053Z,16.60
2023-11-25T21:04:06.295Z,19.00
2023-11-25T21:09:10.204Z,18.08
2023-11-25T21:14:15.132Z,15.70
2023-11-25T21:19:19.435Z,17.10
2023-11-25T21:24:23.842Z,16.38
2023-11-25T21:29:28.903Z,17.35
2023-11-25T21:34:32.658Z,17.23
2023-11-25T21:39:36.168Z,16.73
2023-11-25T21:44:41.318Z,16.00
2023-11-25T21:49:45.144Z,17.13
2023-11-25T21:54:48.840Z,16.63
2023-11-25T21:59:54.302Z,18.00
2023-11-25T22:04:57.987Z,18.95
2023-11-25T22:10:02.112Z,18.38
2023-11-25T22:15:08.638Z,16.85
2023-11-25T22:20:12.790Z,15.63
2023-11-25T22:25:27.148Z,17.15
2023-11-25T22:30:32.477Z,16.65
2023-11-25T22:35:47.765Z,17.10
2023-11-25T22:40:59.298Z,17.08
2023-11-25T22:46:06.421Z,17.20
2023-11-25T22:51:10.119Z,17.08
2023-11-25T22:56:13.877Z,17.40
2023-11-25T23:01:20.845Z,16.60
2023-11-25T23:06:24.901Z,16.33
2023-11-25T23:11:28.636Z,16.33
2023-11-25T23:16:33.918Z,14.88
2023-11-25T23:21:37.851Z,14.75
2023-11-25T23:26:42.086Z,14.02
2023-11-25T23:31:47.169Z,15.13
2023-11-25T23:36:50.920Z,14.00
2023-11-25T23:41:54.899Z,12.43
2023-11-25T23:46:59.800Z,13.50
2023-11-25T23:52:03.995Z,12.75
2023-11-25T23:57:07.449Z,13.40
